Roxane — 9H9917 — position and weather

sailwx.info

Track history (hours):
 
Tides and Currents Weather Stations Pressure Air Temp Water Temp Dewpoint Dewpoint Depression Visibility Wind Speed Wind Dir Waves Ship Positions

Roxane

Last reported at 2014-Jul-01 23:27 UTC. Time now 2014-Aug-31 04:36 UTC.
Position N 36°45' E 026°45'.
Warning: this ship's position is months out of date.

Length 46 m.

Type: Sailing vessel. MMSI: 248548000.

Date/timePositionNaut miles runAvg speedWind from/ knotsBaromVisibWave heightAir tempDewpointWater temp
2014-Jul-01 23:27N 36°45' E 026°45'1010.9
2014-Jul-01 22:33N 36°49' E 026°34'1110.9
2014-Jul-01 21:33N 36°54' E 026°22'1111.0
2014-Jul-01 20:33N 37°01' E 026°11'1111.2
2014-Jul-01 19:33N 37°06' E 025°58'1111.0
2014-Jul-01 18:31N 37°12' E 025°46'1110.9
2014-Jul-01 17:32N 37°17' E 025°35'1110.7
2014-Jul-01 16:33N 37°23' E 025°23'4 3.5
2014-Jul-01 15:29N 37°25' E 025°19'3 3.4
2014-Jul-01 14:31N 37°23' E 025°16'0 0.0
2014-Jul-01 13:31N 37°23' E 025°16'0 0.0
2014-Jul-01 12:31N 37°23' E 025°16'0 0.0
2014-Jul-01 11:31N 37°23' E 025°16'0 0.0
2014-Jul-01 10:31N 37°23' E 025°16'0 0.0
2014-Jul-01 09:31N 37°23' E 025°16'0 0.0
2014-Jul-01 08:31N 37°23' E 025°16'1 1.2
2014-Jul-01 07:33N 37°22' E 025°15'0 0.2
2014-Jul-01 06:33N 37°23' E 025°15'0 0.0
2014-Jul-01 05:33N 37°23' E 025°15'0 0.0
2014-Jul-01 04:33N 37°23' E 025°15'0 0.0
2014-Jul-01 03:33N 37°23' E 025°15'0 0.0
2014-Jul-01 02:27N 37°23' E 025°15'0 0.0
2014-Jul-01 01:24N 37°23' E 025°15'0 0.0
2014-Jul-01 00:33N 37°23' E 025°15'0 0.0
2014-Jun-30 23:33N 37°23' E 025°15'0 0.0
2014-Jun-30 22:33N 37°23' E 025°15'0 0.0
2014-Jun-30 21:33N 37°23' E 025°15'0 0.0
2014-Jun-30 20:30N 37°23' E 025°15'0 0.0
2014-Jun-30 19:30N 37°23' E 025°15'0 0.0
2014-Jun-30 18:33N 37°23' E 025°15'0 0.0
2014-Jun-30 17:33N 37°23' E 025°15'0 0.0
2014-Jun-30 16:30N 37°23' E 025°15'0 0.0
2014-Jun-30 15:33N 37°23' E 025°15'0 0.0
2014-Jun-30 14:33N 37°23' E 025°15'0 0.0
2014-Jun-30 13:30N 37°23' E 025°15'4 4.2
2014-Jun-30 12:30N 37°25' E 025°19'0 0.0
2014-Jun-30 11:33N 37°25' E 025°19'0 0.2
2014-Jun-30 10:14N 37°25' E 025°19'2 2.4
2014-Jun-30 09:33N 37°25' E 025°17'1010.1
2014-Jun-30 08:32N 37°32' E 025°08'71 3.0
2014-Jun-29 08:32N 37°52' E 023°42'4 1.9
2014-Jun-29 06:20N 37°56' E 023°39'0 0.0
2014-Jun-29 05:32N 37°56' E 023°39'0 0.0
2014-Jun-28 21:14N 37°56' E 023°39'0 0.0
2014-Jun-28 18:32N 37°56' E 023°39'0 0.0
2014-Jun-28 16:20N 37°56' E 023°39'0 0.0
2014-Jun-28 15:20N 37°56' E 023°39'0 0.0
2014-Jun-28 11:26N 37°56' E 023°39'0 0.0
2014-Jun-28 10:32N 37°56' E 023°39'0 0.0
2014-Jun-28 09:20N 37°56' E 023°39'0 0.0
2014-Jun-28 07:29N 37°56' E 023°39'0 0.0
2014-Jun-28 06:32N 37°56' E 023°39'0 0.0
2014-Jun-28 05:32N 37°56' E 023°39'0 0.0
2014-Jun-28 04:33N 37°56' E 023°39'0 0.0
2014-Jun-28 03:30N 37°56' E 023°39'0 0.0
2014-Jun-28 02:33N 37°56' E 023°39'0 0.0
2014-Jun-28 01:30N 37°56' E 023°39'0 0.0
2014-Jun-28 00:30N 37°56' E 023°39'0 0.0
2014-Jun-27 23:30N 37°56' E 023°39'0 0.0
2014-Jun-27 22:30N 37°56' E 023°39'0 0.0
2014-Jun-27 21:30N 37°56' E 023°39'0 0.0
2014-Jun-27 20:33N 37°56' E 023°39'0 0.0
2014-Jun-27 19:33N 37°56' E 023°39'0 0.0
2014-Jun-27 18:33N 37°56' E 023°39'0 0.0
2014-Jun-27 17:30N 37°56' E 023°39'0 0.0
2014-Jun-27 16:33N 37°56' E 023°39'0 0.0
2014-Jun-27 15:33N 37°56' E 023°39'0 0.0
2014-Jun-27 14:27N 37°56' E 023°39'0 0.0
2014-Jun-27 13:33N 37°56' E 023°39'0 0.0
2014-Jun-27 12:18N 37°56' E 023°39'0 0.0
2014-Jun-27 11:30N 37°56' E 023°39'0 0.0
2014-Jun-27 10:27N 37°56' E 023°39'0 0.0
2014-Jun-27 09:30N 37°56' E 023°39'0 0.0
2014-Jun-27 08:24N 37°56' E 023°39'0 0.0
2014-Jun-27 07:18N 37°56' E 023°39'0 0.0
2014-Jun-27 06:27N 37°56' E 023°39'0 0.0
2014-Jun-27 05:30N 37°56' E 023°39'0 0.0
2014-Jun-27 04:30N 37°56' E 023°39'0 0.0
2014-Jun-27 03:33N 37°56' E 023°39'0 0.0
2014-Jun-27 02:30N 37°56' E 023°39'0 0.0
2014-Jun-27 01:24N 37°56' E 023°39'0 0.0
2014-Jun-27 00:33N 37°56' E 023°39'0 0.0
2014-Jun-26 23:30N 37°56' E 023°39'0 0.0
2014-Jun-26 22:30N 37°56' E 023°39'0 0.0
2014-Jun-26 21:30N 37°56' E 023°39'0 0.0
2014-Jun-26 20:33N 37°56' E 023°39'0 0.0
2014-Jun-26 19:30N 37°56' E 023°39'0 0.0
2014-Jun-26 18:30N 37°56' E 023°39'0 0.0
2014-Jun-26 17:24N 37°56' E 023°39'0 0.0
2014-Jun-26 16:30N 37°56' E 023°39'0 0.0
2014-Jun-26 15:30N 37°56' E 023°39'0 0.0
2014-Jun-26 14:33N 37°56' E 023°39'0 0.0
2014-Jun-26 13:30N 37°56' E 023°39'0 0.0
2014-Jun-26 12:24N 37°56' E 023°39'0 0.0
2014-Jun-26 11:12N 37°56' E 023°39'0 0.0
2014-Jun-26 10:12N 37°56' E 023°39'0 0.0
2014-Jun-26 09:30N 37°56' E 023°39'0 0.0
2014-Jun-26 08:33N 37°56' E 023°39'0 0.0
2014-Jun-26 07:33N 37°56' E 023°39'0 0.0
2014-Jun-26 06:30N 37°56' E 023°39'0 0.0
2014-Jun-26 05:30N 37°56' E 023°39'0 0.0
2014-Jun-26 04:30N 37°56' E 023°39'0 0.0
2014-Jun-26 03:30N 37°56' E 023°39'0 0.0
2014-Jun-26 02:33N 37°56' E 023°39'0 0.0
2014-Jun-26 01:30N 37°56' E 023°39'0 0.0
2014-Jun-26 00:30N 37°56' E 023°39'0 0.0
2014-Jun-25 23:30N 37°56' E 023°39'0 0.0
2014-Jun-25 22:24N 37°56' E 023°39'0 0.0
2014-Jun-25 21:18N 37°56' E 023°39'0 0.0
2014-Jun-25 20:18N 37°56' E 023°39'0 0.0
2014-Jun-25 19:24N 37°56' E 023°39'0 0.0
2014-Jun-25 18:30N 37°56' E 023°39'0 0.0
2014-Jun-25 17:30N 37°56' E 023°39'0 0.0
2014-Jun-25 16:30N 37°56' E 023°39'0 0.0
2014-Jun-25 14:18N 37°56' E 023°39'0 0.0
2014-Jun-25 13:30N 37°56' E 023°39'0 0.0
2014-Jun-25 12:24N 37°56' E 023°39'0 0.0
2014-Jun-25 11:30N 37°56' E 023°39'0 0.0
2014-Jun-25 10:24N 37°56' E 023°39'0 0.0
2014-Jun-25 09:33N 37°56' E 023°39'0 0.0
2014-Jun-25 08:27N 37°56' E 023°39'0 0.0
2014-Jun-25 07:30N 37°56' E 023°39'0 0.0
2014-Jun-25 06:33N 37°56' E 023°39'0 0.0
2014-Jun-25 05:33N 37°56' E 023°39'0 0.0
2014-Jun-25 04:27N 37°56' E 023°39'0 0.0
2014-Jun-25 03:30N 37°56' E 023°39'0 0.0
2014-Jun-25 02:33N 37°56' E 023°39'0 0.0
2014-Jun-25 01:24N 37°56' E 023°39'0 0.0
2014-Jun-25 00:33N 37°56' E 023°39'0 0.0
2014-Jun-24 23:30N 37°56' E 023°39'0 0.0
2014-Jun-24 22:27N 37°56' E 023°39'0 0.0
2014-Jun-24 21:30N 37°56' E 023°39'0 0.0
2014-Jun-24 20:33N 37°56' E 023°39'0 0.0
2014-Jun-24 19:30N 37°56' E 023°39'0 0.0
2014-Jun-24 18:30N 37°56' E 023°39'0 0.0
2014-Jun-24 17:33N 37°56' E 023°39'1 1.3
2014-Jun-24 16:33N 37°55' E 023°40'1110.6
2014-Jun-24 15:32N 37°46' E 023°47'32 9.9
2014-Jun-24 12:15N 37°31' E 024°24'3011.2
2014-Jun-24 09:33N 37°30' E 025°02'1111.0
2014-Jun-24 08:33N 37°28' E 025°16'5 4.6
2014-Jun-24 07:32N 37°24' E 025°19'1 0.5
2014-Jun-24 06:28N 37°25' E 025°19'0 0.0
2014-Jun-24 05:28N 37°25' E 025°19'0 0.0
2014-Jun-24 04:28N 37°25' E 025°19'0 0.0
2014-Jun-24 03:31N 37°25' E 025°19'0 0.0
2014-Jun-24 02:28N 37°25' E 025°19'0 0.0
2014-Jun-24 01:31N 37°25' E 025°19'0 0.0
2014-Jun-24 00:16N 37°25' E 025°19'0 0.0
2014-Jun-23 23:31N 37°25' E 025°19'0 0.0
2014-Jun-23 22:29N 37°25' E 025°19'0 0.0
2014-Jun-23 21:31N 37°25' E 025°19'0 0.0
2014-Jun-23 20:31N 37°25' E 025°19'0 0.0
2014-Jun-23 16:16N 37°25' E 025°19'0 0.0
2014-Jun-23 15:28N 37°25' E 025°19'0 0.0
2014-Jun-23 14:22N 37°25' E 025°19'0 0.0
2014-Jun-23 12:32N 37°25' E 025°19'0 0.0
2014-Jun-23 11:25N 37°25' E 025°19'0 0.0
2014-Jun-23 10:31N 37°25' E 025°19'0 0.0
2014-Jun-23 09:29N 37°25' E 025°19'0 0.0
2014-Jun-23 08:25N 37°25' E 025°19'0 0.0
2014-Jun-23 07:23N 37°25' E 025°19'0 0.0
2014-Jun-23 06:31N 37°25' E 025°19'0 0.0
2014-Jun-23 05:25N 37°25' E 025°19'0 0.0
2014-Jun-23 04:29N 37°25' E 025°19'0 0.0
2014-Jun-23 03:22N 37°25' E 025°19'0 0.0
2014-Jun-23 02:23N 37°25' E 025°19'0 0.0
2014-Jun-23 01:29N 37°25' E 025°19'0 0.0
2014-Jun-23 00:29N 37°25' E 025°19'0 0.0
2014-Jun-22 23:29N 37°25' E 025°19'0 0.0
2014-Jun-22 22:32N 37°25' E 025°19'0 0.0
2014-Jun-22 21:32N 37°25' E 025°19'0 0.0
2014-Jun-22 20:29N 37°25' E 025°19'0 0.0
2014-Jun-22 19:20N 37°25' E 025°19'0 0.0
2014-Jun-22 18:29N 37°25' E 025°19'0 0.0
2014-Jun-22 17:29N 37°25' E 025°19'0 0.0
2014-Jun-22 16:23N 37°25' E 025°19'0 0.0
2014-Jun-22 15:32N 37°25' E 025°19'0 0.0
2014-Jun-22 14:23N 37°25' E 025°19'2 2.8
2014-Jun-22 13:33N 37°23' E 025°18'3 2.7
2014-Jun-22 12:31N 37°23' E 025°14'0 0.0
2014-Jun-22 11:31N 37°23' E 025°14'0 0.0
2014-Jun-22 10:31N 37°23' E 025°14'0 0.0
2014-Jun-22 09:31N 37°23' E 025°14'1 0.6
2014-Jun-22 08:33N 37°22' E 025°15'6 5.9
2014-Jun-22 07:31N 37°27' E 025°19'0 0.0
2014-Jun-22 06:31N 37°27' E 025°19'0 0.0
2014-Jun-22 05:31N 37°27' E 025°19'0 0.0
2014-Jun-22 04:31N 37°27' E 025°19'0 0.0
2014-Jun-22 03:28N 37°27' E 025°19'0 0.0
2014-Jun-22 02:31N 37°27' E 025°19'0 0.0
2014-Jun-22 01:31N 37°27' E 025°19'0 0.0
2014-Jun-22 00:31N 37°27' E 025°19'0 0.0
2014-Jun-21 23:31N 37°27' E 025°19'  
Track history (hours):
 
Tides and Currents Weather Stations Pressure Air Temp Water Temp Dewpoint Dewpoint Depression Visibility Wind Speed Wind Dir Waves Ship Positions

Roxane

Last reported at 2014-Jul-01 23:27 UTC. Time now 2014-Aug-31 04:36 UTC.
Position N 36°45' E 026°45'.
Warning: this ship's position is months out of date.

Length 46 m.

Type: Sailing vessel. MMSI: 248548000.

Date/timePositionNaut miles runAvg speedWind from/ knotsBaromVisibWave heightAir tempDewpointWater temp
2014-Jul-01 23:27N 36°45' E 026°45'1010.9
2014-Jul-01 22:33N 36°49' E 026°34'1110.9
2014-Jul-01 21:33N 36°54' E 026°22'1111.0
2014-Jul-01 20:33N 37°01' E 026°11'1111.2
2014-Jul-01 19:33N 37°06' E 025°58'1111.0
2014-Jul-01 18:31N 37°12' E 025°46'1110.9
2014-Jul-01 17:32N 37°17' E 025°35'1110.7
2014-Jul-01 16:33N 37°23' E 025°23'4 3.5
2014-Jul-01 15:29N 37°25' E 025°19'3 3.4
2014-Jul-01 14:31N 37°23' E 025°16'0 0.0
2014-Jul-01 13:31N 37°23' E 025°16'0 0.0
2014-Jul-01 12:31N 37°23' E 025°16'0 0.0
2014-Jul-01 11:31N 37°23' E 025°16'0 0.0
2014-Jul-01 10:31N 37°23' E 025°16'0 0.0
2014-Jul-01 09:31N 37°23' E 025°16'0 0.0
2014-Jul-01 08:31N 37°23' E 025°16'1 1.2
2014-Jul-01 07:33N 37°22' E 025°15'0 0.2
2014-Jul-01 06:33N 37°23' E 025°15'0 0.0
2014-Jul-01 05:33N 37°23' E 025°15'0 0.0
2014-Jul-01 04:33N 37°23' E 025°15'0 0.0
2014-Jul-01 03:33N 37°23' E 025°15'0 0.0
2014-Jul-01 02:27N 37°23' E 025°15'0 0.0
2014-Jul-01 01:24N 37°23' E 025°15'0 0.0
2014-Jul-01 00:33N 37°23' E 025°15'0 0.0
2014-Jun-30 23:33N 37°23' E 025°15'0 0.0
2014-Jun-30 22:33N 37°23' E 025°15'0 0.0
2014-Jun-30 21:33N 37°23' E 025°15'0 0.0
2014-Jun-30 20:30N 37°23' E 025°15'0 0.0
2014-Jun-30 19:30N 37°23' E 025°15'0 0.0
2014-Jun-30 18:33N 37°23' E 025°15'0 0.0
2014-Jun-30 17:33N 37°23' E 025°15'0 0.0
2014-Jun-30 16:30N 37°23' E 025°15'0 0.0
2014-Jun-30 15:33N 37°23' E 025°15'0 0.0
2014-Jun-30 14:33N 37°23' E 025°15'0 0.0
2014-Jun-30 13:30N 37°23' E 025°15'4 4.2
2014-Jun-30 12:30N 37°25' E 025°19'0 0.0
2014-Jun-30 11:33N 37°25' E 025°19'0 0.2
2014-Jun-30 10:14N 37°25' E 025°19'2 2.4
2014-Jun-30 09:33N 37°25' E 025°17'1010.1
2014-Jun-30 08:32N 37°32' E 025°08'71 3.0
2014-Jun-29 08:32N 37°52' E 023°42'4 1.9
2014-Jun-29 06:20N 37°56' E 023°39'0 0.0
2014-Jun-29 05:32N 37°56' E 023°39'0 0.0
2014-Jun-28 21:14N 37°56' E 023°39'0 0.0
2014-Jun-28 18:32N 37°56' E 023°39'0 0.0
2014-Jun-28 16:20N 37°56' E 023°39'0 0.0
2014-Jun-28 15:20N 37°56' E 023°39'0 0.0
2014-Jun-28 11:26N 37°56' E 023°39'0 0.0
2014-Jun-28 10:32N 37°56' E 023°39'0 0.0
2014-Jun-28 09:20N 37°56' E 023°39'0 0.0
2014-Jun-28 07:29N 37°56' E 023°39'0 0.0
2014-Jun-28 06:32N 37°56' E 023°39'0 0.0
2014-Jun-28 05:32N 37°56' E 023°39'0 0.0
2014-Jun-28 04:33N 37°56' E 023°39'0 0.0
2014-Jun-28 03:30N 37°56' E 023°39'0 0.0
2014-Jun-28 02:33N 37°56' E 023°39'0 0.0
2014-Jun-28 01:30N 37°56' E 023°39'0 0.0
2014-Jun-28 00:30N 37°56' E 023°39'0 0.0
2014-Jun-27 23:30N 37°56' E 023°39'0 0.0
2014-Jun-27 22:30N 37°56' E 023°39'0 0.0
2014-Jun-27 21:30N 37°56' E 023°39'0 0.0
2014-Jun-27 20:33N 37°56' E 023°39'0 0.0
2014-Jun-27 19:33N 37°56' E 023°39'0 0.0
2014-Jun-27 18:33N 37°56' E 023°39'0 0.0
2014-Jun-27 17:30N 37°56' E 023°39'0 0.0
2014-Jun-27 16:33N 37°56' E 023°39'0 0.0
2014-Jun-27 15:33N 37°56' E 023°39'0 0.0
2014-Jun-27 14:27N 37°56' E 023°39'0 0.0
2014-Jun-27 13:33N 37°56' E 023°39'0 0.0
2014-Jun-27 12:18N 37°56' E 023°39'0 0.0
2014-Jun-27 11:30N 37°56' E 023°39'0 0.0
2014-Jun-27 10:27N 37°56' E 023°39'0 0.0
2014-Jun-27 09:30N 37°56' E 023°39'0 0.0
2014-Jun-27 08:24N 37°56' E 023°39'0 0.0
2014-Jun-27 07:18N 37°56' E 023°39'0 0.0
2014-Jun-27 06:27N 37°56' E 023°39'0 0.0
2014-Jun-27 05:30N 37°56' E 023°39'0 0.0
2014-Jun-27 04:30N 37°56' E 023°39'0 0.0
2014-Jun-27 03:33N 37°56' E 023°39'0 0.0
2014-Jun-27 02:30N 37°56' E 023°39'0 0.0
2014-Jun-27 01:24N 37°56' E 023°39'0 0.0
2014-Jun-27 00:33N 37°56' E 023°39'0 0.0
2014-Jun-26 23:30N 37°56' E 023°39'0 0.0
2014-Jun-26 22:30N 37°56' E 023°39'0 0.0
2014-Jun-26 21:30N 37°56' E 023°39'0 0.0
2014-Jun-26 20:33N 37°56' E 023°39'0 0.0
2014-Jun-26 19:30N 37°56' E 023°39'0 0.0
2014-Jun-26 18:30N 37°56' E 023°39'0 0.0
2014-Jun-26 17:24N 37°56' E 023°39'0 0.0
2014-Jun-26 16:30N 37°56' E 023°39'0 0.0
2014-Jun-26 15:30N 37°56' E 023°39'0 0.0
2014-Jun-26 14:33N 37°56' E 023°39'0 0.0
2014-Jun-26 13:30N 37°56' E 023°39'0 0.0
2014-Jun-26 12:24N 37°56' E 023°39'0 0.0
2014-Jun-26 11:12N 37°56' E 023°39'0 0.0
2014-Jun-26 10:12N 37°56' E 023°39'0 0.0
2014-Jun-26 09:30N 37°56' E 023°39'0 0.0
2014-Jun-26 08:33N 37°56' E 023°39'0 0.0
2014-Jun-26 07:33N 37°56' E 023°39'0 0.0
2014-Jun-26 06:30N 37°56' E 023°39'0 0.0
2014-Jun-26 05:30N 37°56' E 023°39'0 0.0
2014-Jun-26 04:30N 37°56' E 023°39'0 0.0
2014-Jun-26 03:30N 37°56' E 023°39'0 0.0
2014-Jun-26 02:33N 37°56' E 023°39'0 0.0
2014-Jun-26 01:30N 37°56' E 023°39'0 0.0
2014-Jun-26 00:30N 37°56' E 023°39'0 0.0
2014-Jun-25 23:30N 37°56' E 023°39'0 0.0
2014-Jun-25 22:24N 37°56' E 023°39'0 0.0
2014-Jun-25 21:18N 37°56' E 023°39'0 0.0
2014-Jun-25 20:18N 37°56' E 023°39'0 0.0
2014-Jun-25 19:24N 37°56' E 023°39'0 0.0
2014-Jun-25 18:30N 37°56' E 023°39'0 0.0
2014-Jun-25 17:30N 37°56' E 023°39'0 0.0
2014-Jun-25 16:30N 37°56' E 023°39'0 0.0
2014-Jun-25 14:18N 37°56' E 023°39'0 0.0
2014-Jun-25 13:30N 37°56' E 023°39'0 0.0
2014-Jun-25 12:24N 37°56' E 023°39'0 0.0
2014-Jun-25 11:30N 37°56' E 023°39'0 0.0
2014-Jun-25 10:24N 37°56' E 023°39'0 0.0
2014-Jun-25 09:33N 37°56' E 023°39'0 0.0
2014-Jun-25 08:27N 37°56' E 023°39'0 0.0
2014-Jun-25 07:30N 37°56' E 023°39'0 0.0
2014-Jun-25 06:33N 37°56' E 023°39'0 0.0
2014-Jun-25 05:33N 37°56' E 023°39'0 0.0
2014-Jun-25 04:27N 37°56' E 023°39'0 0.0
2014-Jun-25 03:30N 37°56' E 023°39'0 0.0
2014-Jun-25 02:33N 37°56' E 023°39'0 0.0
2014-Jun-25 01:24N 37°56' E 023°39'0 0.0
2014-Jun-25 00:33N 37°56' E 023°39'0 0.0
2014-Jun-24 23:30N 37°56' E 023°39'0 0.0
2014-Jun-24 22:27N 37°56' E 023°39'0 0.0
2014-Jun-24 21:30N 37°56' E 023°39'0 0.0
2014-Jun-24 20:33N 37°56' E 023°39'0 0.0
2014-Jun-24 19:30N 37°56' E 023°39'0 0.0
2014-Jun-24 18:30N 37°56' E 023°39'0 0.0
2014-Jun-24 17:33N 37°56' E 023°39'1 1.3
2014-Jun-24 16:33N 37°55' E 023°40'1110.6
2014-Jun-24 15:32N 37°46' E 023°47'32 9.9
2014-Jun-24 12:15N 37°31' E 024°24'3011.2
2014-Jun-24 09:33N 37°30' E 025°02'1111.0
2014-Jun-24 08:33N 37°28' E 025°16'5 4.6
2014-Jun-24 07:32N 37°24' E 025°19'1 0.5
2014-Jun-24 06:28N 37°25' E 025°19'0 0.0
2014-Jun-24 05:28N 37°25' E 025°19'0 0.0
2014-Jun-24 04:28N 37°25' E 025°19'0 0.0
2014-Jun-24 03:31N 37°25' E 025°19'0 0.0
2014-Jun-24 02:28N 37°25' E 025°19'0 0.0
2014-Jun-24 01:31N 37°25' E 025°19'0 0.0
2014-Jun-24 00:16N 37°25' E 025°19'0 0.0
2014-Jun-23 23:31N 37°25' E 025°19'0 0.0
2014-Jun-23 22:29N 37°25' E 025°19'0 0.0
2014-Jun-23 21:31N 37°25' E 025°19'0 0.0
2014-Jun-23 20:31N 37°25' E 025°19'0 0.0
2014-Jun-23 16:16N 37°25' E 025°19'0 0.0
2014-Jun-23 15:28N 37°25' E 025°19'0 0.0
2014-Jun-23 14:22N 37°25' E 025°19'0 0.0
2014-Jun-23 12:32N 37°25' E 025°19'0 0.0
2014-Jun-23 11:25N 37°25' E 025°19'0 0.0
2014-Jun-23 10:31N 37°25' E 025°19'0 0.0
2014-Jun-23 09:29N 37°25' E 025°19'0 0.0
2014-Jun-23 08:25N 37°25' E 025°19'0 0.0
2014-Jun-23 07:23N 37°25' E 025°19'0 0.0
2014-Jun-23 06:31N 37°25' E 025°19'0 0.0
2014-Jun-23 05:25N 37°25' E 025°19'0 0.0
2014-Jun-23 04:29N 37°25' E 025°19'0 0.0
2014-Jun-23 03:22N 37°25' E 025°19'0 0.0
2014-Jun-23 02:23N 37°25' E 025°19'0 0.0
2014-Jun-23 01:29N 37°25' E 025°19'0 0.0
2014-Jun-23 00:29N 37°25' E 025°19'0 0.0
2014-Jun-22 23:29N 37°25' E 025°19'0 0.0
2014-Jun-22 22:32N 37°25' E 025°19'0 0.0
2014-Jun-22 21:32N 37°25' E 025°19'0 0.0
2014-Jun-22 20:29N 37°25' E 025°19'0 0.0
2014-Jun-22 19:20N 37°25' E 025°19'0 0.0
2014-Jun-22 18:29N 37°25' E 025°19'0 0.0
2014-Jun-22 17:29N 37°25' E 025°19'0 0.0
2014-Jun-22 16:23N 37°25' E 025°19'0 0.0
2014-Jun-22 15:32N 37°25' E 025°19'0 0.0
2014-Jun-22 14:23N 37°25' E 025°19'2 2.8
2014-Jun-22 13:33N 37°23' E 025°18'3 2.7
2014-Jun-22 12:31N 37°23' E 025°14'0 0.0
2014-Jun-22 11:31N 37°23' E 025°14'0 0.0
2014-Jun-22 10:31N 37°23' E 025°14'0 0.0
2014-Jun-22 09:31N 37°23' E 025°14'1 0.6
2014-Jun-22 08:33N 37°22' E 025°15'6 5.9
2014-Jun-22 07:31N 37°27' E 025°19'0 0.0
2014-Jun-22 06:31N 37°27' E 025°19'0 0.0
2014-Jun-22 05:31N 37°27' E 025°19'0 0.0
2014-Jun-22 04:31N 37°27' E 025°19'0 0.0
2014-Jun-22 03:28N 37°27' E 025°19'0 0.0
2014-Jun-22 02:31N 37°27' E 025°19'0 0.0
2014-Jun-22 01:31N 37°27' E 025°19'0 0.0
2014-Jun-22 00:31N 37°27' E 025°19'0 0.0
2014-Jun-21 23:31N 37°27' E 025°19'  

Dump ship's entire track history